createdAt,value
2017-12-04T00:00:54.082Z,21
2017-12-04T00:10:54.166Z,20
2017-12-04T00:20:54.180Z,21
2017-12-04T00:30:54.259Z,20
2017-12-04T00:40:54.154Z,19
2017-12-04T00:50:54.226Z,18
2017-12-04T01:00:54.139Z,16
2017-12-04T01:10:54.163Z,20
2017-12-04T01:20:54.310Z,18
2017-12-04T01:30:54.119Z,18
2017-12-04T01:40:54.204Z,17
2017-12-04T01:50:54.164Z,18
2017-12-04T02:00:54.196Z,16
2017-12-04T02:10:54.236Z,15
2017-12-04T02:20:54.210Z,15
2017-12-04T02:30:54.177Z,13
2017-12-04T02:40:54.217Z,14
2017-12-04T02:50:54.235Z,12
2017-12-04T03:00:54.275Z,13
2017-12-04T03:10:54.215Z,11
2017-12-04T03:20:54.287Z,11
2017-12-04T03:30:54.330Z,10
2017-12-04T03:40:54.187Z,10
2017-12-04T03:50:54.266Z,10
2017-12-04T04:00:54.223Z,9
2017-12-04T04:10:54.279Z,8
2017-12-04T04:20:54.257Z,8
2017-12-04T04:30:54.323Z,7
2017-12-04T04:40:54.263Z,8
2017-12-04T04:50:54.305Z,5
2017-12-04T05:00:54.320Z,5
2017-12-04T05:10:54.364Z,5
2017-12-04T05:20:54.313Z,5
2017-12-04T05:30:54.425Z,6
2017-12-04T05:40:54.325Z,6
2017-12-04T05:50:54.297Z,5
2017-12-04T06:00:54.357Z,7
2017-12-04T06:10:54.308Z,6
2017-12-04T06:20:54.427Z,6
2017-12-04T06:30:54.327Z,5
2017-12-04T06:40:54.434Z,7
2017-12-04T06:50:54.450Z,5
2017-12-04T07:00:54.453Z,6
2017-12-04T07:10:54.420Z,5
2017-12-04T07:20:54.451Z,6
2017-12-04T07:30:54.409Z,6
2017-12-04T07:40:54.503Z,5
2017-12-04T07:50:54.427Z,6
2017-12-04T08:00:54.369Z,5
2017-12-04T08:10:54.457Z,5
2017-12-04T08:20:54.410Z,6
2017-12-04T08:30:54.546Z,5
2017-12-04T08:40:54.479Z,4
2017-12-04T08:50:55.234Z,5
2017-12-04T09:00:54.450Z,4
2017-12-04T09:10:54.749Z,4
2017-12-04T09:20:54.565Z,2
2017-12-04T09:30:54.518Z,2
2017-12-04T09:40:54.510Z,4
2017-12-04T09:50:54.523Z,6
2017-12-04T10:00:54.567Z,6
2017-12-04T10:10:54.789Z,5
2017-12-04T10:20:54.578Z,4
2017-12-04T10:30:54.511Z,4
2017-12-04T10:40:54.568Z,4
2017-12-04T10:50:54.554Z,2
2017-12-04T11:00:54.623Z,4
2017-12-04T11:10:54.607Z,3
2017-12-04T11:20:54.710Z,3
2017-12-04T11:30:54.923Z,1
2017-12-04T11:40:54.744Z,1
2017-12-04T11:50:54.658Z,2
2017-12-04T12:00:55.138Z,2
2017-12-04T12:10:54.708Z,3
2017-12-04T12:20:54.989Z,4
2017-12-04T12:30:54.697Z,4
2017-12-04T12:40:54.712Z,2
2017-12-04T12:50:54.645Z,3
2017-12-04T13:00:54.716Z,2
2017-12-04T13:10:54.642Z,2
2017-12-04T13:20:54.735Z,3
2017-12-04T13:30:54.696Z,2
2017-12-04T13:40:54.736Z,2
2017-12-04T13:50:54.775Z,3
2017-12-04T14:00:54.805Z,3
2017-12-04T14:10:55.790Z,4
2017-12-04T14:20:54.795Z,3
2017-12-04T14:30:54.824Z,3
2017-12-04T14:40:54.894Z,4
2017-12-04T14:50:54.843Z,4
2017-12-04T15:00:54.988Z,3
2017-12-04T15:10:55.407Z,3
2017-12-04T15:20:55.030Z,3
2017-12-04T15:30:54.939Z,3
2017-12-04T15:40:55.585Z,3
2017-12-04T15:50:54.987Z,4
2017-12-04T16:00:54.875Z,4
2017-12-04T16:10:55.095Z,4
2017-12-04T16:20:55.508Z,5
2017-12-04T16:30:55.014Z,4
2017-12-04T16:40:54.918Z,7
2017-12-04T16:50:55.045Z,6
2017-12-04T17:00:55.006Z,6
2017-12-04T17:10:55.054Z,7
2017-12-04T17:20:54.940Z,7
2017-12-04T17:30:55.047Z,6
2017-12-04T17:40:55.043Z,6
2017-12-04T17:50:55.021Z,7
2017-12-04T18:00:55.000Z,7
2017-12-04T18:10:54.942Z,7
2017-12-04T18:20:55.026Z,6
2017-12-04T18:30:55.166Z,6
2017-12-04T18:40:55.219Z,6
2017-12-04T18:50:55.199Z,6
2017-12-04T19:00:55.158Z,7
2017-12-04T19:10:55.370Z,6
2017-12-04T19:20:55.686Z,6
2017-12-04T19:30:55.718Z,7
2017-12-04T19:40:56.436Z,8
2017-12-04T19:50:55.163Z,7
2017-12-04T20:00:56.505Z,6
2017-12-04T20:10:56.889Z,6
2017-12-04T20:20:56.545Z,7
2017-12-04T20:30:56.283Z,7
2017-12-04T20:40:55.511Z,6
2017-12-04T20:50:56.420Z,7
2017-12-04T21:00:55.592Z,6
2017-12-04T21:10:56.112Z,8
2017-12-04T21:20:56.143Z,8
2017-12-04T21:30:55.794Z,8
2017-12-04T21:40:55.937Z,9
2017-12-04T21:50:55.935Z,9
2017-12-04T22:00:55.282Z,9
2017-12-04T22:10:56.084Z,10
2017-12-04T22:20:56.825Z,10
2017-12-04T22:30:55.495Z,10
2017-12-04T22:40:55.542Z,10
2017-12-04T22:50:55.330Z,11
2017-12-04T23:00:55.207Z,14
2017-12-04T23:10:55.184Z,13
2017-12-04T23:20:55.349Z,16
2017-12-04T23:30:55.217Z,17
2017-12-04T23:40:55.203Z,15
2017-12-04T23:50:55.244Z,13
